Time;durP1;ratioP1;P1;durP2;ratioP2;P2;SDS_P1;SDS_P2;PMS_P1;PMS_P2;Temp;Humidity;BMP_temperature;BMP_pressure;BME280_temperature;BME280_humidity;BME280_pressure;Samples;Min_cycle;Max_cycle;Signal;HPM_P1;HPM_P2
2023/05/27 00:00:05;;;;;;;23.00;6.60;;;13.10;99.90;;;;;;5076987;28;20472;-82
2023/05/27 00:02:30;;;;;;;20.70;6.93;;;13.00;99.90;;;;;;5100721;28;20422;-80
2023/05/27 00:04:56;;;;;;;17.57;6.50;;;13.00;99.90;;;;;;5098355;28;20538;-81
2023/05/27 00:07:21;;;;;;;18.63;6.17;;;13.00;99.90;;;;;;5096771;28;20184;-81
2023/05/27 00:09:47;;;;;;;17.70;6.50;;;12.90;99.90;;;;;;5088708;28;20260;-80
2023/05/27 00:12:12;;;;;;;18.50;7.20;;;12.90;99.90;;;;;;5083979;28;20191;-81
2023/05/27 00:14:38;;;;;;;11.93;6.00;;;12.90;99.90;;;;;;5097376;28;20655;-83
2023/05/27 00:17:03;;;;;;;18.73;5.83;;;12.80;99.90;;;;;;5096178;28;20188;-81
2023/05/27 00:19:30;;;;;;;17.63;6.10;;;12.80;99.90;;;;;;5080543;28;20177;-81
2023/05/27 00:21:56;;;;;;;19.63;6.20;;;12.80;99.90;;;;;;5084099;28;20216;-82
2023/05/27 00:24:25;;;;;;;21.87;6.23;;;12.80;99.90;;;;;;5091277;28;20459;-82
2023/05/27 00:26:50;;;;;;;13.07;6.07;;;12.70;99.90;;;;;;5091822;28;20414;-80
2023/05/27 00:29:16;;;;;;;18.37;6.47;;;12.70;99.90;;;;;;5096961;28;20534;-80
2023/05/27 00:31:42;;;;;;;15.77;6.20;;;12.60;99.90;;;;;;5096447;28;20195;-82
2023/05/27 00:34:08;;;;;;;23.60;6.50;;;12.60;99.90;;;;;;5096747;28;20445;-80
2023/05/27 00:36:33;;;;;;;16.57;5.80;;;12.60;99.90;;;;;;5068922;28;20276;-82
2023/05/27 00:39:00;;;;;;;16.70;6.27;;;12.50;99.90;;;;;;5079034;28;20191;-82
2023/05/27 00:41:28;;;;;;;15.73;6.50;;;12.50;99.90;;;;;;5094553;28;20218;-83
2023/05/27 00:43:56;;;;;;;16.40;6.70;;;12.50;99.90;;;;;;5097246;28;20505;-80
2023/05/27 00:46:22;;;;;;;19.40;5.60;;;12.40;99.90;;;;;;5095739;28;20489;-81
2023/05/27 00:48:48;;;;;;;15.40;5.80;;;12.40;99.90;;;;;;5093152;28;20446;-81
2023/05/27 00:51:14;;;;;;;15.23;6.30;;;12.40;99.90;;;;;;5079144;28;20201;-82
2023/05/27 00:53:41;;;;;;;16.80;6.37;;;12.40;99.90;;;;;;5074039;28;20439;-81
2023/05/27 00:56:10;;;;;;;20.03;6.97;;;12.30;99.90;;;;;;5069619;28;21042;-82
2023/05/27 00:58:36;;;;;;;20.23;6.53;;;12.30;99.90;;;;;;5080139;28;20434;-81
2023/05/27 01:01:03;;;;;;;10.20;5.87;;;12.30;99.90;;;;;;5079108;28;20461;-81
2023/05/27 01:03:33;;;;;;;17.67;6.40;;;12.20;99.90;;;;;;5097751;28;20464;-83
2023/05/27 01:06:22;;;;;;;18.07;6.13;;;12.20;99.90;;;;;;5089483;28;20485;-81
2023/05/27 01:08:56;;;;;;;14.70;6.27;;;12.10;99.90;;;;;;5097797;28;21021;-82
2023/05/27 01:11:26;;;;;;;21.77;6.23;;;12.10;99.90;;;;;;5060980;28;20921;-82
2023/05/27 01:13:58;;;;;;;17.83;7.30;;;12.00;99.90;;;;;;5079346;28;20912;-82
2023/05/27 01:16:26;;;;;;;24.20;7.97;;;12.00;99.90;;;;;;5090687;28;20462;-82
2023/05/27 01:18:53;;;;;;;16.20;6.30;;;12.00;99.90;;;;;;5092898;28;20921;-81
2023/05/27 01:21:21;;;;;;;17.30;6.57;;;11.90;99.90;;;;;;5095084;28;20461;-82
2023/05/27 01:23:48;;;;;;;14.10;6.40;;;11.90;99.90;;;;;;5085188;28;20407;-83
2023/05/27 01:26:14;;;;;;;14.33;6.53;;;11.90;99.90;;;;;;5091898;28;20450;-82
2023/05/27 01:28:40;;;;;;;15.23;6.20;;;11.90;99.90;;;;;;5093323;28;20485;-81
2023/05/27 01:31:21;;;;;;;13.00;6.77;;;11.80;99.90;;;;;;5097635;28;20824;-82
2023/05/27 01:33:55;;;;;;;12.33;5.13;;;11.80;99.90;;;;;;5099533;28;20449;-81
2023/05/27 01:36:24;;;;;;;13.60;5.83;;;11.70;99.90;;;;;;5099060;28;21003;-81
2023/05/27 01:38:51;;;;;;;16.30;6.33;;;11.70;99.90;;;;;;5094979;28;20445;-81
2023/05/27 01:41:17;;;;;;;13.27;5.67;;;11.70;99.90;;;;;;5080018;28;20462;-81
2023/05/27 01:43:44;;;;;;;23.67;6.90;;;11.70;99.90;;;;;;5078682;28;20415;-82
2023/05/27 01:46:10;;;;;;;17.67;6.20;;;11.60;99.90;;;;;;5070697;28;20477;-83
2023/05/27 01:48:35;;;;;;;20.43;6.60;;;11.60;99.90;;;;;;5072536;28;20435;-81
2023/05/27 01:51:01;;;;;;;15.70;5.60;;;11.60;99.90;;;;;;5098695;28;20184;-82
2023/05/27 01:53:26;;;;;;;14.23;6.23;;;11.60;99.90;;;;;;5077830;28;20186;-81
2023/05/27 01:55:52;;;;;;;15.30;5.90;;;11.50;99.90;;;;;;5089151;28;20207;-81
2023/05/27 01:58:17;;;;;;;16.73;5.33;;;11.50;99.90;;;;;;5097906;28;20263;-82
2023/05/27 02:00:43;;;;;;;18.00;6.50;;;11.50;99.90;;;;;;5087592;28;20239;-83
2023/05/27 02:03:11;;;;;;;16.00;7.03;;;11.40;99.90;;;;;;5094894;28;20237;-80
2023/05/27 02:05:36;;;;;;;13.27;5.70;;;11.40;99.90;;;;;;5096954;28;20208;-80
2023/05/27 02:08:02;;;;;;;16.37;6.23;;;11.40;1.00;;;;;;5071596;28;21107;-80
2023/05/27 02:10:28;;;;;;;18.00;6.77;;;11.30;1.00;;;;;;5090219;28;20254;-80
2023/05/27 02:12:54;;;;;;;17.03;5.97;;;11.30;1.00;;;;;;5077098;28;20438;-81
2023/05/27 02:15:23;;;;;;;17.60;5.50;;;11.30;1.00;;;;;;5088625;28;20465;-82
2023/05/27 02:17:54;;;;;;;13.90;5.27;;;11.20;1.00;;;;;;5092929;28;20184;-80
2023/05/27 02:20:23;;;;;;;17.50;6.37;;;11.30;1.00;;;;;;5091377;28;20489;-83
2023/05/27 02:22:52;;;;;;;14.17;5.60;;;11.20;1.00;;;;;;5102042;28;20529;-80
2023/05/27 02:25:17;;;;;;;13.23;5.80;;;11.20;1.00;;;;;;5093958;28;20461;-82
2023/05/27 02:27:47;;;;;;;17.73;5.60;;;11.10;1.00;;;;;;5097063;28;20445;-82
2023/05/27 02:30:13;;;;;;;14.33;5.80;;;11.10;1.00;;;;;;5095723;28;20206;-81
2023/05/27 02:32:38;;;;;;;19.70;6.37;;;11.10;1.00;;;;;;5103363;28;20418;-81
2023/05/27 02:35:04;;;;;;;21.43;5.80;;;11.00;1.00;;;;;;5102592;28;20476;-82
2023/05/27 02:37:30;;;;;;;14.47;6.80;;;11.00;1.00;;;;;;5083318;28;20210;-80
2023/05/27 02:39:56;;;;;;;17.10;6.07;;;10.90;1.00;;;;;;5094475;28;20262;-81
2023/05/27 02:42:21;;;;;;;21.07;7.00;;;10.90;1.00;;;;;;5099939;28;20177;-80
2023/05/27 02:44:47;;;;;;;23.37;7.23;;;10.80;1.00;;;;;;5101393;28;20460;-80
2023/05/27 02:47:12;;;;;;;20.00;6.53;;;10.80;1.00;;;;;;5098531;28;20220;-82
2023/05/27 02:49:38;;;;;;;19.33;6.23;;;10.70;1.00;;;;;;5094632;28;20177;-82
2023/05/27 02:52:04;;;;;;;22.73;7.00;;;10.70;3.10;;;;;;5093226;28;20228;-80
2023/05/27 02:54:29;;;;;;;15.23;5.97;;;10.70;32.40;;;;;;5081360;28;20886;-83
2023/05/27 02:56:55;;;;;;;20.03;6.93;;;10.60;53.80;;;;;;5094900;28;20469;-82
2023/05/27 02:59:20;;;;;;;20.30;7.50;;;10.60;76.00;;;;;;5090862;28;20216;-81
2023/05/27 03:01:46;;;;;;;13.63;6.10;;;10.60;99.90;;;;;;5101237;28;20766;-80
2023/05/27 03:04:11;;;;;;;13.80;6.60;;;10.60;99.90;;;;;;5100736;28;20188;-81
2023/05/27 03:06:37;;;;;;;21.30;6.00;;;10.60;99.90;;;;;;5090017;28;20687;-81
2023/05/27 03:09:03;;;;;;;22.03;6.93;;;10.50;99.90;;;;;;5102075;28;20184;-81
2023/05/27 03:11:29;;;;;;;17.17;6.77;;;10.50;99.90;;;;;;5097926;28;20687;-82
2023/05/27 03:13:54;;;;;;;22.60;6.60;;;10.40;99.90;;;;;;5089198;28;20434;-81
2023/05/27 03:16:20;;;;;;;23.27;7.10;;;10.40;99.90;;;;;;5090446;28;20209;-82
2023/05/27 03:18:46;;;;;;;14.40;6.00;;;10.40;99.90;;;;;;5101558;28;20262;-82
2023/05/27 03:21:13;;;;;;;23.20;7.10;;;10.30;99.90;;;;;;5097856;28;20215;-81
2023/05/27 03:23:38;;;;;;;21.20;7.97;;;10.30;1.00;;;;;;5087081;28;20203;-81
2023/05/27 03:26:04;;;;;;;26.63;8.10;;;10.30;1.00;;;;;;5087551;28;20557;-80
2023/05/27 03:28:30;;;;;;;23.60;7.97;;;10.20;1.00;;;;;;5090087;28;20176;-81
2023/05/27 03:30:55;;;;;;;17.20;6.90;;;10.20;1.00;;;;;;5094775;28;20263;-81
2023/05/27 03:33:25;;;;;;;23.20;7.23;;;10.10;12.60;;;;;;5098475;28;20321;-79
2023/05/27 03:35:51;;;;;;;15.90;7.07;;;10.10;6.10;;;;;;5084821;28;20206;-80
2023/05/27 03:38:17;;;;;;;22.13;7.13;;;10.10;96.20;;;;;;5092415;28;20513;-80
2023/05/27 03:40:42;;;;;;;19.10;6.93;;;10.10;99.90;;;;;;5095918;28;20211;-78
2023/05/27 03:43:08;;;;;;;18.00;7.23;;;10.20;54.00;;;;;;5099970;28;20418;-81
2023/05/27 03:45:33;;;;;;;12.67;5.93;;;10.20;56.20;;;;;;5078786;28;20270;-83
2023/05/27 03:47:59;;;;;;;26.77;7.63;;;10.20;31.20;;;;;;5080700;28;20192;-80
2023/05/27 03:50:24;;;;;;;18.90;6.80;;;10.20;1.00;;;;;;5080176;28;20188;-80
2023/05/27 03:52:50;;;;;;;18.90;7.40;;;10.30;1.00;;;;;;5094546;28;20196;-82
2023/05/27 03:55:20;;;;;;;16.17;7.27;;;10.30;1.00;;;;;;5074896;28;20713;-80
2023/05/27 03:57:46;;;;;;;17.33;7.53;;;10.40;1.00;;;;;;5098231;28;20764;-81
2023/05/27 04:00:12;;;;;;;16.57;7.07;;;10.40;1.00;;;;;;5078872;28;20455;-81
2023/05/27 04:02:39;;;;;;;14.30;5.87;;;10.40;1.00;;;;;;5098202;28;20180;-81
2023/05/27 04:05:04;;;;;;;31.47;8.20;;;10.40;1.00;;;;;;5072319;28;20481;-82
2023/05/27 04:07:31;;;;;;;12.60;7.30;;;10.50;1.00;;;;;;5100427;28;20437;-80
2023/05/27 04:09:57;;;;;;;14.57;7.83;;;10.50;1.00;;;;;;5090523;28;20176;-81
2023/05/27 04:12:23;;;;;;;25.13;7.03;;;10.60;1.00;;;;;;5076303;28;20437;-80
2023/05/27 04:14:49;;;;;;;26.33;7.87;;;10.60;1.00;;;;;;5087705;28;20431;-81
2023/05/27 04:17:14;;;;;;;12.07;6.70;;;10.70;1.00;;;;;;5098467;28;20496;-82
2023/05/27 04:19:40;;;;;;;17.83;7.43;;;10.70;1.00;;;;;;5093077;28;20627;-81
2023/05/27 04:22:05;;;;;;;19.47;7.53;;;10.80;1.00;;;;;;5098011;28;20208;-80
2023/05/27 04:24:31;;;;;;;23.37;7.80;;;10.80;1.00;;;;;;5096163;28;20189;-80
2023/05/27 04:26:56;;;;;;;13.00;7.57;;;10.90;1.00;;;;;;5094457;28;20194;-82
2023/05/27 04:29:25;;;;;;;21.37;8.57;;;10.90;1.00;;;;;;5100566;28;20271;-81
2023/05/27 04:31:50;;;;;;;20.70;6.77;;;11.00;1.00;;;;;;5087657;28;20184;-80
2023/05/27 04:34:16;;;;;;;14.97;7.00;;;11.00;99.90;;;;;;5094960;28;20524;-82
2023/05/27 04:36:43;;;;;;;24.40;7.13;;;11.10;99.90;;;;;;5085730;28;20212;-80
2023/05/27 04:39:11;;;;;;;17.30;7.53;;;11.10;99.90;;;;;;5085405;28;20240;-82
2023/05/27 04:41:39;;;;;;;18.50;7.17;;;11.20;99.90;;;;;;5095778;28;20553;-82
2023/05/27 04:44:05;;;;;;;24.13;8.30;;;11.20;99.90;;;;;;5095780;28;20469;-82
2023/05/27 04:46:30;;;;;;;17.47;8.37;;;11.30;99.90;;;;;;5090294;28;20930;-82
2023/05/27 04:48:56;;;;;;;18.93;7.70;;;11.30;99.90;;;;;;5096026;28;20267;-82
2023/05/27 04:51:22;;;;;;;19.03;7.70;;;11.40;99.90;;;;;;5099182;28;20325;-82
2023/05/27 04:53:48;;;;;;;21.00;7.27;;;11.50;99.90;;;;;;5096986;28;20188;-82
2023/05/27 04:56:15;;;;;;;17.50;7.77;;;11.60;99.90;;;;;;5090973;28;20461;-82
2023/05/27 04:58:43;;;;;;;18.70;7.93;;;11.70;99.90;;;;;;5088234;28;20177;-80
2023/05/27 05:01:16;;;;;;;18.60;8.30;;;11.80;99.90;;;;;;5083423;28;20478;-82
2023/05/27 05:03:51;;;;;;;19.70;7.00;;;11.90;99.90;;;;;;5072701;28;20572;-82
2023/05/27 05:06:18;;;;;;;19.97;8.07;;;12.00;93.90;;;;;;5080294;28;20642;-83
2023/05/27 05:08:44;;;;;;;17.87;7.40;;;12.10;41.60;;;;;;5092053;28;20515;-83
2023/05/27 05:11:10;;;;;;;23.43;8.33;;;12.30;1.50;;;;;;5093333;28;20458;-81
2023/05/27 05:13:35;;;;;;;16.07;7.67;;;12.40;1.00;;;;;;5090994;28;20618;-81
2023/05/27 05:16:01;;;;;;;19.13;7.60;;;12.50;1.00;;;;;;5093671;28;20219;-82
2023/05/27 05:18:26;;;;;;;19.53;8.03;;;12.60;1.00;;;;;;5079456;28;20188;-81
2023/05/27 05:20:52;;;;;;;23.93;7.83;;;12.80;1.00;;;;;;5089695;28;20207;-82
2023/05/27 05:23:18;;;;;;;15.50;7.03;;;12.90;1.00;;;;;;5076553;28;20916;-81
2023/05/27 05:25:43;;;;;;;32.90;7.97;;;13.10;1.00;;;;;;5095224;28;20203;-82
2023/05/27 05:28:09;;;;;;;24.60;7.73;;;13.20;1.00;;;;;;5094681;28;20414;-81
2023/05/27 05:30:34;;;;;;;18.90;7.70;;;13.40;1.00;;;;;;5078100;28;20187;-82
2023/05/27 05:33:00;;;;;;;15.67;7.17;;;13.50;1.00;;;;;;5097990;28;20208;-81
2023/05/27 05:35:26;;;;;;;14.60;6.97;;;13.60;1.00;;;;;;5097094;28;20205;-83
2023/05/27 05:37:51;;;;;;;19.43;6.60;;;13.70;99.90;;;;;;5090325;28;20185;-83
2023/05/27 05:40:17;;;;;;;20.13;7.10;;;13.80;99.90;;;;;;5098279;28;20200;-80
2023/05/27 05:42:42;;;;;;;18.60;7.37;;;13.90;99.90;;;;;;5077784;28;20215;-83
2023/05/27 05:45:08;;;;;;;16.43;7.03;;;14.10;99.90;;;;;;5095291;28;20222;-82
2023/05/27 05:47:34;;;;;;;16.63;7.47;;;14.30;99.90;;;;;;5097641;28;20202;-80
2023/05/27 05:49:59;;;;;;;18.23;7.67;;;14.50;99.90;;;;;;5098407;28;20183;-81
2023/05/27 05:52:25;;;;;;;14.13;6.90;;;14.70;99.90;;;;;;5099135;28;20183;-82
2023/05/27 05:54:51;;;;;;;24.10;7.80;;;14.90;99.90;;;;;;5095582;28;20204;-80
2023/05/27 05:57:16;;;;;;;13.47;6.77;;;15.30;99.90;;;;;;5099670;28;20184;-80
2023/05/27 05:59:42;;;;;;;19.57;6.33;;;16.20;99.90;;;;;;5071922;28;20184;-82
2023/05/27 06:02:08;;;;;;;14.63;6.33;;;18.20;99.90;;;;;;5096568;28;20208;-81
2023/05/27 06:04:33;;;;;;;17.57;6.83;;;21.50;99.90;;;;;;5098996;28;20267;-83
2023/05/27 06:06:59;;;;;;;13.87;6.30;;;24.60;99.90;;;;;;5093197;28;20232;-82
2023/05/27 06:09:25;;;;;;;12.30;5.37;;;27.00;99.90;;;;;;5099408;28;20603;-84
2023/05/27 06:11:51;;;;;;;18.13;7.10;;;29.10;99.90;;;;;;5081498;28;20250;-82
2023/05/27 06:14:17;;;;;;;15.20;6.30;;;30.70;99.90;;;;;;5093911;28;20426;-82
2023/05/27 06:16:43;;;;;;;15.17;6.80;;;32.00;99.90;;;;;;5086284;28;20442;-82
2023/05/27 06:19:08;;;;;;;14.00;6.20;;;33.30;99.90;;;;;;5094512;28;20668;-82
2023/05/27 06:21:36;;;;;;;20.30;6.47;;;34.10;99.90;;;;;;5073185;28;20501;-80
2023/05/27 06:24:02;;;;;;;15.90;6.63;;;34.80;99.90;;;;;;5091844;28;20611;-83
2023/05/27 06:26:30;;;;;;;11.63;6.57;;;35.60;99.90;;;;;;5096099;28;20438;-82
2023/05/27 06:28:56;;;;;;;15.40;6.07;;;36.20;99.90;;;;;;5090094;28;20192;-82
2023/05/27 06:31:21;;;;;;;13.53;6.40;;;36.90;99.90;;;;;;5088642;28;20954;-82
2023/05/27 06:33:47;;;;;;;12.13;6.23;;;37.00;99.90;;;;;;5089164;28;20206;-82
2023/05/27 06:36:13;;;;;;;14.77;6.70;;;37.40;99.90;;;;;;5083013;28;20240;-83
2023/05/27 06:38:38;;;;;;;11.67;5.80;;;38.10;99.90;;;;;;5061721;28;20196;-82
2023/05/27 06:41:04;;;;;;;11.93;5.63;;;39.40;98.70;;;;;;5078565;28;20209;-83
2023/05/27 06:43:29;;;;;;;14.80;6.50;;;40.50;95.10;;;;;;5090657;28;20180;-82
2023/05/27 06:45:55;;;;;;;12.80;5.70;;;41.60;91.70;;;;;;5096573;28;20216;-83
2023/05/27 06:48:20;;;;;;;12.57;6.27;;;42.60;87.20;;;;;;5088711;28;20189;-83
2023/05/27 06:50:46;;;;;;;12.40;6.40;;;43.70;81.80;;;;;;5090911;28;20219;-83
2023/05/27 06:53:13;;;;;;;11.70;6.00;;;44.20;73.50;;;;;;5074252;28;20541;-82
2023/05/27 06:55:38;;;;;;;15.90;6.80;;;44.90;68.20;;;;;;5092083;28;20196;-83
2023/05/27 06:58:04;;;;;;;11.53;5.93;;;45.60;62.50;;;;;;5090372;28;20418;-83
2023/05/27 07:00:29;;;;;;;17.00;6.50;;;46.60;58.60;;;;;;5093586;28;20222;-83
2023/05/27 07:02:55;;;;;;;13.13;6.10;;;47.30;55.40;;;;;;5098795;28;20222;-83
2023/05/27 07:05:22;;;;;;;14.73;5.90;;;47.70;51.00;;;;;;5090094;28;20212;-83
2023/05/27 07:07:47;;;;;;;14.87;7.03;;;48.20;48.00;;;;;;5094927;28;20216;-82
2023/05/27 07:10:13;;;;;;;12.47;5.90;;;48.00;43.70;;;;;;5097535;28;20562;-84
2023/05/27 07:12:38;;;;;;;14.40;6.63;;;48.40;41.20;;;;;;5102826;28;20184;-83
2023/05/27 07:15:04;;;;;;;13.33;5.87;;;49.00;38.90;;;;;;5102790;28;20199;-83
2023/05/27 07:17:30;;;;;;;16.07;5.13;;;49.70;37.40;;;;;;5081638;28;20172;-82
2023/05/27 07:19:55;;;;;;;15.53;6.10;;;50.30;34.90;;;;;;5096013;28;20509;-80
2023/05/27 07:22:21;;;;;;;12.90;5.87;;;50.20;31.80;;;;;;5095642;28;20211;-84
2023/05/27 07:24:47;;;;;;;17.03;6.67;;;49.90;28.90;;;;;;5090472;28;20179;-84
2023/05/27 07:27:12;;;;;;;10.83;5.70;;;49.80;27.20;;;;;;5100084;28;20210;-81
2023/05/27 07:29:38;;;;;;;19.10;6.23;;;49.80;26.20;;;;;;5096382;28;20274;-83
2023/05/27 07:32:03;;;;;;;15.57;6.80;;;49.60;24.10;;;;;;5097294;28;20207;-83
2023/05/27 07:34:29;;;;;;;16.00;6.40;;;49.70;23.20;;;;;;5102550;28;20600;-82
2023/05/27 07:36:56;;;;;;;12.53;6.33;;;49.70;22.40;;;;;;5094753;28;20244;-83
2023/05/27 07:39:21;;;;;;;18.90;5.63;;;49.40;21.30;;;;;;5095852;28;20655;-85
2023/05/27 07:41:47;;;;;;;18.03;6.60;;;48.40;18.70;;;;;;5102502;28;20432;-83
2023/05/27 07:44:12;;;;;;;11.97;5.10;;;47.90;18.00;;;;;;5092757;28;20229;-82
2023/05/27 07:46:38;;;;;;;15.40;5.90;;;47.50;27.40;;;;;;5094915;28;20211;-81
2023/05/27 07:49:05;;;;;;;21.30;6.40;;;47.50;17.50;;;;;;5098462;28;20313;-83
2023/05/27 07:51:31;;;;;;;13.50;5.80;;;47.50;16.20;;;;;;5100174;28;20317;-83
2023/05/27 07:53:57;;;;;;;13.30;6.20;;;47.60;16.60;;;;;;5095178;28;20456;-83
2023/05/27 07:56:22;;;;;;;13.00;6.23;;;47.30;15.80;;;;;;5078796;28;20457;-82
2023/05/27 07:58:48;;;;;;;16.33;5.97;;;47.40;15.80;;;;;;5099576;28;20201;-84
2023/05/27 08:01:13;;;;;;;12.10;5.80;;;47.80;16.00;;;;;;5078458;28;20180;-84
2023/05/27 08:03:39;;;;;;;9.93;4.90;;;47.90;15.50;;;;;;5092747;28;20184;-83
2023/05/27 08:06:05;;;;;;;17.80;6.13;;;48.20;15.90;;;;;;5102168;28;20199;-83
2023/05/27 08:08:30;;;;;;;17.10;6.33;;;49.10;26.80;;;;;;5093478;28;20180;-83
2023/05/27 08:10:56;;;;;;;23.93;7.00;;;48.40;15.30;;;;;;5099495;28;20211;-84
2023/05/27 08:13:22;;;;;;;16.77;5.73;;;49.00;15.60;;;;;;5095352;28;20646;-85
2023/05/27 08:15:48;;;;;;;16.50;7.00;;;49.60;16.20;;;;;;5098937;28;20495;-83
2023/05/27 08:18:13;;;;;;;11.07;5.60;;;50.00;16.20;;;;;;5101250;28;20210;-84
2023/05/27 08:20:39;;;;;;;16.00;5.50;;;50.60;16.40;;;;;;5100339;28;20265;-83
2023/05/27 08:23:04;;;;;;;11.20;5.77;;;50.30;14.40;;;;;;5096497;28;20298;-83
2023/05/27 08:25:30;;;;;;;13.40;6.47;;;49.80;13.40;;;;;;5096162;28;20199;-84
2023/05/27 08:28:01;;;;;;;15.07;5.30;;;49.70;13.10;;;;;;5095128;28;20222;-83
2023/05/27 08:30:30;;;;;;;15.57;5.87;;;49.70;12.80;;;;;;5096443;28;20192;-82
2023/05/27 08:32:57;;;;;;;11.53;5.37;;;50.00;12.50;;;;;;5098277;28;20954;-83
2023/05/27 08:35:23;;;;;;;15.17;5.20;;;49.40;11.30;;;;;;5098342;28;20951;-82
2023/05/27 08:37:48;;;;;;;11.20;5.00;;;48.50;9.20;;;;;;5082627;28;20414;-84
2023/05/27 08:40:16;;;;;;;12.37;5.07;;;48.30;9.20;;;;;;5100866;28;20290;-84
2023/05/27 08:42:42;;;;;;;12.50;6.13;;;48.60;9.70;;;;;;5098566;28;20365;-83
2023/05/27 08:45:09;;;;;;;12.23;5.43;;;48.70;9.70;;;;;;5100686;28;20505;-83
2023/05/27 08:47:35;;;;;;;11.73;6.00;;;48.80;9.90;;;;;;5096562;28;20179;-85
2023/05/27 08:50:07;;;;;;;13.60;5.10;;;48.20;8.00;;;;;;5081152;28;20425;-83
2023/05/27 08:52:37;;;;;;;14.40;5.50;;;48.00;8.80;;;;;;5094191;28;20262;-83
2023/05/27 08:55:05;;;;;;;10.20;5.23;;;47.70;8.20;;;;;;5098613;28;20536;-84
2023/05/27 08:57:32;;;;;;;15.40;5.60;;;47.80;7.90;;;;;;5091933;28;20566;-81
2023/05/27 08:59:58;;;;;;;13.17;5.00;;;47.90;7.40;;;;;;5097200;28;20474;-81
2023/05/27 09:02:24;;;;;;;12.33;5.60;;;48.40;9.30;;;;;;5100525;28;20501;-81
2023/05/27 09:04:53;;;;;;;12.73;5.53;;;48.50;9.40;;;;;;5097025;28;20291;-82
2023/05/27 09:07:21;;;;;;;14.70;5.43;;;48.80;9.10;;;;;;5097326;28;20440;-80
2023/05/27 09:09:57;;;;;;;15.97;5.97;;;48.80;9.20;;;;;;5091252;28;20442;-82
2023/05/27 09:12:25;;;;;;;12.30;4.77;;;49.10;10.00;;;;;;5078888;28;20441;-82
2023/05/27 09:14:51;;;;;;;12.80;4.83;;;49.40;10.40;;;;;;5093449;28;20956;-83
2023/05/27 09:17:17;;;;;;;11.00;4.70;;;49.40;9.60;;;;;;5091710;28;20433;-84
2023/05/27 09:19:45;;;;;;;11.00;5.30;;;49.30;10.00;;;;;;5097430;28;20448;-84
2023/05/27 09:22:19;;;;;;;10.43;5.27;;;48.90;8.40;;;;;;5095983;28;20214;-83
2023/05/27 09:24:45;;;;;;;11.60;5.50;;;48.20;6.30;;;;;;5096660;28;20589;-83
2023/05/27 09:27:10;;;;;;;11.07;4.40;;;47.30;5.70;;;;;;5069527;28;21253;-84
2023/05/27 09:29:41;;;;;;;10.57;6.20;;;46.50;4.70;;;;;;5097644;28;20260;-83
2023/05/27 09:32:08;;;;;;;15.50;5.20;;;45.90;2.90;;;;;;5099069;28;20659;-82
2023/05/27 09:34:40;;;;;;;14.47;4.77;;;45.30;2.20;;;;;;5072660;28;20445;-84
2023/05/27 09:37:05;;;;;;;10.03;4.30;;;45.30;3.20;;;;;;5079580;28;20442;-83
2023/05/27 09:39:34;;;;;;;10.90;4.80;;;45.00;2.40;;;;;;5091317;28;20515;-84
2023/05/27 09:42:01;;;;;;;15.70;5.03;;;44.10;1.60;;;;;;5089716;28;20192;-82
2023/05/27 09:44:36;;;;;;;12.93;5.17;;;43.50;1.00;;;;;;5078719;28;20434;-84
2023/05/27 09:47:04;;;;;;;10.80;4.60;;;43.70;1.80;;;;;;5078029;28;20480;-83
2023/05/27 09:49:32;;;;;;;9.10;4.63;;;43.70;2.70;;;;;;5095145;28;20433;-79
2023/05/27 09:51:59;;;;;;;14.20;4.70;;;43.40;2.40;;;;;;5089285;28;20434;-84
2023/05/27 09:54:25;;;;;;;11.53;5.00;;;43.20;2.40;;;;;;5086844;28;20504;-81
2023/05/27 09:56:52;;;;;;;9.13;4.80;;;43.20;3.30;;;;;;5094490;28;20484;-82
2023/05/27 09:59:17;;;;;;;13.80;5.13;;;43.60;4.70;;;;;;5073535;28;20565;-82
2023/05/27 10:01:47;;;;;;;11.93;4.37;;;43.90;5.40;;;;;;5094623;28;20564;-83
2023/05/27 10:04:15;;;;;;;9.80;4.90;;;44.00;5.70;;;;;;5092408;28;20188;-83
2023/05/27 10:06:41;;;;;;;11.23;4.90;;;44.20;6.20;;;;;;5097247;28;20446;-81
2023/05/27 10:09:10;;;;;;;10.43;4.80;;;44.30;6.60;;;;;;5078755;28;20524;-82
2023/05/27 10:11:37;;;;;;;12.60;5.03;;;44.40;6.90;;;;;;5078285;28;20184;-83
2023/05/27 10:14:05;;;;;;;10.07;5.10;;;44.30;7.00;;;;;;5092374;28;20576;-84
2023/05/27 10:16:31;;;;;;;9.40;4.53;;;44.10;6.40;;;;;;5078404;28;20468;-82
2023/05/27 10:18:58;;;;;;;11.53;4.90;;;44.00;6.30;;;;;;5099194;28;20418;-84
2023/05/27 10:21:27;;;;;;;9.53;4.40;;;43.80;5.40;;;;;;5096391;28;20466;-82
2023/05/27 10:23:57;;;;;;;14.40;5.00;;;42.60;3.00;;;;;;5098030;28;20513;-82
2023/05/27 10:26:42;;;;;;;13.60;5.00;;;42.30;3.10;;;;;;5091592;28;20445;-83
2023/05/27 10:29:13;;;;;;;11.40;4.93;;;42.50;4.30;;;;;;5097883;28;20465;-83
2023/05/27 10:31:48;;;;;;;13.57;5.30;;;42.40;4.10;;;;;;5070389;28;20465;-83
2023/05/27 10:34:14;;;;;;;10.33;4.70;;;41.70;3.20;;;;;;5097200;28;20916;-83
2023/05/27 10:36:40;;;;;;;12.33;5.10;;;41.30;2.70;;;;;;5092973;28;20453;-82
2023/05/27 10:39:06;;;;;;;10.23;4.57;;;41.50;4.30;;;;;;5094415;28;20211;-83
2023/05/27 10:41:52;;;;;;;9.70;5.17;;;41.90;5.00;;;;;;5099438;28;20235;-80
2023/05/27 10:44:29;;;;;;;13.60;5.30;;;41.90;4.80;;;;;;5084448;28;20436;-82
2023/05/27 10:47:01;;;;;;;13.10;5.30;;;41.70;4.00;;;;;;5099088;28;20509;-81
2023/05/27 10:49:33;;;;;;;10.30;4.50;;;41.50;3.80;;;;;;5081588;28;20460;-84
2023/05/27 10:52:04;;;;;;;10.03;4.57;;;41.60;5.10;;;;;;5099457;28;20433;-82
2023/05/27 10:54:33;;;;;;;10.83;5.00;;;41.40;4.30;;;;;;5098848;28;20448;-81
2023/05/27 10:56:59;;;;;;;11.00;4.43;;;40.90;3.20;;;;;;5077680;28;20464;-81
2023/05/27 10:59:37;;;;;;;9.40;5.10;;;41.00;4.70;;;;;;5099425;28;20845;-82
2023/05/27 11:02:05;;;;;;;10.03;4.80;;;41.10;5.40;;;;;;5089642;28;20212;-82
2023/05/27 11:04:37;;;;;;;9.43;5.37;;;40.70;4.00;;;;;;5097799;28;20465;-80
2023/05/27 11:07:03;;;;;;;13.13;5.33;;;40.50;4.00;;;;;;5081531;28;20454;-82
2023/05/27 11:09:28;;;;;;;8.83;4.97;;;40.00;3.30;;;;;;5098596;28;20486;-82
2023/05/27 11:12:05;;;;;;;11.40;5.00;;;39.50;2.80;;;;;;5095343;28;20445;-82
2023/05/27 11:14:30;;;;;;;10.27;5.27;;;39.30;3.80;;;;;;5095988;28;20186;-81
2023/05/27 11:16:56;;;;;;;10.50;4.50;;;39.30;3.60;;;;;;5101631;28;20433;-82
2023/05/27 11:19:21;;;;;;;10.13;5.37;;;39.60;5.00;;;;;;5101308;28;20276;-82
2023/05/27 11:21:48;;;;;;;14.23;4.90;;;39.30;4.40;;;;;;5091841;28;20306;-84
2023/05/27 11:24:19;;;;;;;15.80;6.77;;;39.20;4.10;;;;;;5077299;28;20271;-83
2023/05/27 11:26:46;;;;;;;14.67;4.60;;;39.10;4.80;;;;;;5101666;28;20489;-83
2023/05/27 11:29:13;;;;;;;14.27;5.63;;;39.00;5.20;;;;;;5095517;28;20787;-81
2023/05/27 11:31:41;;;;;;;14.93;5.10;;;38.70;4.20;;;;;;5092634;28;20446;-81
2023/05/27 11:34:14;;;;;;;11.73;5.80;;;38.60;4.40;;;;;;5101761;28;20525;-81
2023/05/27 11:36:41;;;;;;;12.00;5.60;;;38.10;4.10;;;;;;5098218;28;20453;-79
2023/05/27 11:39:12;;;;;;;12.37;5.03;;;38.10;4.50;;;;;;5076430;28;20438;-80
2023/05/27 11:41:50;;;;;;;12.47;5.10;;;38.40;5.60;;;;;;5097158;28;20470;-81
2023/05/27 11:44:17;;;;;;;11.67;4.60;;;38.40;6.20;;;;;;5097185;28;20426;-80
2023/05/27 11:46:44;;;;;;;12.50;5.30;;;38.10;5.40;;;;;;5095844;28;20569;-79
2023/05/27 11:49:15;;;;;;;8.77;5.50;;;37.90;6.00;;;;;;5080206;28;20843;-81
2023/05/27 11:51:51;;;;;;;10.50;4.67;;;37.70;6.00;;;;;;5071710;28;20474;-81
2023/05/27 11:54:22;;;;;;;10.53;4.63;;;37.70;6.70;;;;;;5098276;28;20425;-81
2023/05/27 11:56:49;;;;;;;8.97;4.60;;;37.70;6.70;;;;;;5090586;28;20463;-80
2023/05/27 11:59:15;;;;;;;13.90;5.17;;;37.70;6.80;;;;;;5098966;28;20422;-79
2023/05/27 12:01:41;;;;;;;14.90;5.80;;;37.70;7.50;;;;;;5067838;28;20467;-79
2023/05/27 12:04:07;;;;;;;9.00;4.93;;;37.20;6.60;;;;;;5098735;28;20438;-81
2023/05/27 12:06:32;;;;;;;13.97;7.03;;;36.40;11.30;;;;;;5094337;28;20298;-80
2023/05/27 12:08:58;;;;;;;9.90;4.40;;;36.00;5.00;;;;;;5098111;28;20207;-80
2023/05/27 12:11:24;;;;;;;12.70;5.40;;;35.60;4.50;;;;;;5096177;28;20188;-80
2023/05/27 12:13:51;;;;;;;14.73;5.53;;;35.90;5.50;;;;;;5099231;28;20226;-80
2023/05/27 12:16:16;;;;;;;15.63;6.40;;;36.20;6.60;;;;;;5098855;28;20450;-81
2023/05/27 12:18:42;;;;;;;10.80;4.70;;;36.30;7.30;;;;;;5097331;28;20418;-80
2023/05/27 12:21:07;;;;;;;13.50;5.13;;;36.60;7.70;;;;;;5099611;28;20229;-81
2023/05/27 12:23:33;;;;;;;11.60;5.20;;;36.40;8.20;;;;;;5090611;28;20192;-79
2023/05/27 12:25:59;;;;;;;9.37;5.00;;;36.20;8.10;;;;;;5094555;28;20207;-80
2023/05/27 12:28:26;;;;;;;10.80;4.53;;;36.10;8.10;;;;;;5093402;28;20194;-82
2023/05/27 12:30:51;;;;;;;9.87;5.07;;;35.90;8.00;;;;;;5088550;28;20425;-81
2023/05/27 12:33:17;;;;;;;12.33;4.50;;;36.10;8.10;;;;;;5093420;28;20442;-80
2023/05/27 12:35:43;;;;;;;12.67;5.00;;;36.20;9.00;;;;;;5078057;28;20200;-79
2023/05/27 12:38:08;;;;;;;10.27;4.93;;;35.50;8.20;;;;;;5094092;28;20199;-81
2023/05/27 12:40:34;;;;;;;10.13;4.60;;;35.10;7.50;;;;;;5097846;28;20235;-80